Time;durP1;ratioP1;P1;durP2;ratioP2;P2;SDS_P1;SDS_P2;PMS_P1;PMS_P2;Temp;Humidity;BMP_temperature;BMP_pressure;BME280_temperature;BME280_humidity;BME280_pressure;Samples;Min_cycle;Max_cycle;Signal;HPM_P1;HPM_P2
2022/11/27 00:00:14;;;;;;;14.87;7.10;;;;;;;;;;523426;28;1500;-61
2022/11/27 00:00:29;;;;;;;14.57;7.32;;;;;;;;;;522231;28;1447;-61
2022/11/27 00:00:45;;;;;;;14.83;7.53;;;;;;;;;;522963;28;1161;-60
2022/11/27 00:01:11;;;;;;;13.65;7.50;;;;;;;;;;519665;28;1081;-61
2022/11/27 00:01:28;;;;;;;15.00;7.38;;;;;;;;;;517979;28;1491;-60
2022/11/27 00:01:44;;;;;;;14.05;7.45;;;;;;;;;;520242;28;1299;-60
2022/11/27 00:01:59;;;;;;;13.85;7.53;;;;;;;;;;521515;28;1600;-61
2022/11/27 00:02:14;;;;;;;13.80;7.37;;;;;;;;;;521396;28;1257;-61
2022/11/27 00:02:30;;;;;;;14.23;7.43;;;;;;;;;;520176;28;1117;-61
2022/11/27 00:02:45;;;;;;;13.93;7.53;;;;;;;;;;518465;28;1734;-60
2022/11/27 00:03:01;;;;;;;13.77;7.43;;;;;;;;;;519998;28;1348;-61
2022/11/27 00:03:16;;;;;;;14.55;7.50;;;;;;;;;;521085;28;1288;-61
2022/11/27 00:03:31;;;;;;;14.07;7.53;;;;;;;;;;522195;28;1373;-61
2022/11/27 00:03:47;;;;;;;13.63;7.87;;;;;;;;;;520583;28;1320;-61
2022/11/27 00:04:03;;;;;;;13.68;8.20;;;;;;;;;;518801;28;1102;-61
2022/11/27 00:04:19;;;;;;;14.77;7.97;;;;;;;;;;522312;28;1767;-61
2022/11/27 00:04:34;;;;;;;15.67;8.13;;;;;;;;;;522892;28;1412;-61
2022/11/27 00:04:49;;;;;;;14.87;8.20;;;;;;;;;;522437;28;1265;-61
2022/11/27 00:05:05;;;;;;;15.10;8.02;;;;;;;;;;522945;28;1276;-61
2022/11/27 00:05:20;;;;;;;15.70;8.23;;;;;;;;;;521070;28;1327;-61
2022/11/27 00:05:36;;;;;;;15.85;8.32;;;;;;;;;;520411;28;1443;-61
2022/11/27 00:05:56;;;;;;;15.33;8.40;;;;;;;;;;520352;28;1470;-61
2022/11/27 00:06:14;;;;;;;14.27;8.20;;;;;;;;;;521204;28;1237;-61
2022/11/27 00:06:30;;;;;;;14.35;7.93;;;;;;;;;;520369;28;1130;-61
2022/11/27 00:06:46;;;;;;;15.05;8.30;;;;;;;;;;523193;28;1327;-61
2022/11/27 00:07:01;;;;;;;15.65;8.60;;;;;;;;;;521363;28;1454;-60
2022/11/27 00:07:16;;;;;;;15.10;7.97;;;;;;;;;;521752;28;1453;-61
2022/11/27 00:07:32;;;;;;;14.83;7.90;;;;;;;;;;526126;28;1675;-61
2022/11/27 00:07:47;;;;;;;15.70;8.10;;;;;;;;;;524209;28;1490;-61
2022/11/27 00:08:02;;;;;;;17.03;8.10;;;;;;;;;;527141;28;1500;-60
2022/11/27 00:08:18;;;;;;;16.42;7.72;;;;;;;;;;526249;28;1149;-61
2022/11/27 00:08:33;;;;;;;16.03;7.70;;;;;;;;;;523346;28;1241;-61
2022/11/27 00:08:49;;;;;;;16.20;8.33;;;;;;;;;;524706;28;1141;-61
2022/11/27 00:09:07;;;;;;;16.02;8.43;;;;;;;;;;524320;28;1810;-60
2022/11/27 00:09:24;;;;;;;14.80;8.25;;;;;;;;;;525539;28;1520;-61
2022/11/27 00:09:39;;;;;;;15.32;8.10;;;;;;;;;;522209;28;1376;-61
2022/11/27 00:09:54;;;;;;;15.57;7.70;;;;;;;;;;521404;28;1255;-61
2022/11/27 00:10:10;;;;;;;15.48;7.57;;;;;;;;;;523406;28;1342;-61
2022/11/27 00:10:25;;;;;;;14.87;7.53;;;;;;;;;;524223;28;1366;-61
2022/11/27 00:10:40;;;;;;;14.90;7.87;;;;;;;;;;523450;28;1679;-61
2022/11/27 00:10:56;;;;;;;15.87;8.40;;;;;;;;;;522387;28;1113;-61
2022/11/27 00:11:15;;;;;;;14.93;8.40;;;;;;;;;;522624;28;1646;-61
2022/11/27 00:11:31;;;;;;;14.35;8.23;;;;;;;;;;523716;28;1310;-61
2022/11/27 00:11:46;;;;;;;15.55;8.10;;;;;;;;;;525397;28;1167;-61
2022/11/27 00:12:02;;;;;;;15.33;8.03;;;;;;;;;;524463;28;1420;-61
2022/11/27 00:12:17;;;;;;;14.97;7.87;;;;;;;;;;524219;28;1842;-61
2022/11/27 00:12:32;;;;;;;15.40;8.00;;;;;;;;;;524312;28;1418;-61
2022/11/27 00:12:48;;;;;;;13.70;8.17;;;;;;;;;;521520;28;1482;-61
2022/11/27 00:13:03;;;;;;;14.57;8.30;;;;;;;;;;523687;28;1252;-61
2022/11/27 00:13:18;;;;;;;16.55;8.68;;;;;;;;;;520860;28;1204;-61
2022/11/27 00:13:34;;;;;;;16.60;8.93;;;;;;;;;;523489;28;1485;-61
2022/11/27 00:13:50;;;;;;;17.97;8.73;;;;;;;;;;522592;28;1902;-61
2022/11/27 00:14:06;;;;;;;18.75;8.77;;;;;;;;;;521923;28;1077;-61
2022/11/27 00:14:21;;;;;;;17.65;8.85;;;;;;;;;;520795;28;1157;-61
2022/11/27 00:14:36;;;;;;;16.23;8.70;;;;;;;;;;521563;28;1209;-61
2022/11/27 00:14:52;;;;;;;14.90;8.73;;;;;;;;;;522929;28;1380;-61
2022/11/27 00:15:07;;;;;;;15.27;9.03;;;;;;;;;;522013;28;1293;-61
2022/11/27 00:15:22;;;;;;;14.48;8.82;;;;;;;;;;519886;28;1360;-61
2022/11/27 00:15:38;;;;;;;16.03;8.63;;;;;;;;;;523066;28;1896;-61
2022/11/27 00:15:56;;;;;;;18.23;8.97;;;;;;;;;;523531;28;2210;-61
2022/11/27 00:16:12;;;;;;;17.35;9.00;;;;;;;;;;524046;28;1176;-61
2022/11/27 00:16:28;;;;;;;15.85;8.70;;;;;;;;;;522482;28;1173;-61
2022/11/27 00:16:43;;;;;;;15.73;8.70;;;;;;;;;;524618;28;1410;-61
2022/11/27 00:16:59;;;;;;;16.00;8.53;;;;;;;;;;525765;28;1150;-61
2022/11/27 00:17:15;;;;;;;13.90;8.20;;;;;;;;;;526434;28;2033;-61
2022/11/27 00:17:30;;;;;;;14.50;8.33;;;;;;;;;;523771;28;1271;-61
2022/11/27 00:17:45;;;;;;;15.23;8.30;;;;;;;;;;524588;28;1434;-61
2022/11/27 00:18:01;;;;;;;15.03;8.60;;;;;;;;;;523062;28;1622;-59
2022/11/27 00:18:16;;;;;;;15.73;8.80;;;;;;;;;;521405;28;1209;-59
2022/11/27 00:18:32;;;;;;;17.08;8.52;;;;;;;;;;522638;28;1541;-58
2022/11/27 00:18:48;;;;;;;17.58;8.60;;;;;;;;;;521356;28;1784;-59
2022/11/27 00:19:04;;;;;;;15.43;8.50;;;;;;;;;;522268;28;1426;-59
2022/11/27 00:19:19;;;;;;;14.23;8.43;;;;;;;;;;522471;28;1632;-59
2022/11/27 00:19:34;;;;;;;14.00;8.57;;;;;;;;;;524141;28;2272;-59
2022/11/27 00:19:49;;;;;;;13.70;8.50;;;;;;;;;;525703;28;1174;-59
2022/11/27 00:20:05;;;;;;;15.77;9.00;;;;;;;;;;526765;28;1373;-59
2022/11/27 00:20:21;;;;;;;18.23;9.43;;;;;;;;;;524261;28;1472;-59
2022/11/27 00:20:36;;;;;;;16.30;9.20;;;;;;;;;;524868;28;1263;-59
2022/11/27 00:20:51;;;;;;;17.87;9.47;;;;;;;;;;523091;28;1231;-60
2022/11/27 00:21:13;;;;;;;18.50;9.20;;;;;;;;;;524652;28;1224;-59
2022/11/27 00:21:30;;;;;;;18.48;8.98;;;;;;;;;;525423;28;1391;-59
2022/11/27 00:21:45;;;;;;;19.55;8.73;;;;;;;;;;526671;28;1191;-59
2022/11/27 00:22:01;;;;;;;18.03;8.70;;;;;;;;;;526927;28;2088;-59
2022/11/27 00:22:16;;;;;;;16.95;9.00;;;;;;;;;;526609;28;1403;-59
2022/11/27 00:22:31;;;;;;;16.93;9.03;;;;;;;;;;527105;28;1199;-59
2022/11/27 00:22:46;;;;;;;16.53;9.03;;;;;;;;;;524702;28;1196;-59
2022/11/27 00:23:02;;;;;;;18.77;9.30;;;;;;;;;;523834;28;1188;-59
2022/11/27 00:23:17;;;;;;;19.70;8.93;;;;;;;;;;523529;28;1378;-59
2022/11/27 00:23:33;;;;;;;17.47;8.87;;;;;;;;;;523655;28;1904;-59
2022/11/27 00:23:53;;;;;;;17.92;9.05;;;;;;;;;;522129;28;1283;-59
2022/11/27 00:24:10;;;;;;;18.27;8.82;;;;;;;;;;523158;28;1422;-59
2022/11/27 00:24:26;;;;;;;16.65;8.98;;;;;;;;;;523425;28;1089;-59
2022/11/27 00:24:42;;;;;;;16.45;9.40;;;;;;;;;;523028;28;1077;-59
2022/11/27 00:24:58;;;;;;;17.60;9.48;;;;;;;;;;524922;28;1279;-59
2022/11/27 00:25:13;;;;;;;17.80;9.27;;;;;;;;;;525770;28;2128;-59
2022/11/27 00:25:28;;;;;;;16.23;9.13;;;;;;;;;;526387;28;1218;-59
2022/11/27 00:25:53;;;;;;;15.77;9.00;;;;;;;;;;525057;28;1164;-59
2022/11/27 00:26:08;;;;;;;16.98;9.40;;;;;;;;;;525306;28;1129;-59
2022/11/27 00:26:24;;;;;;;16.10;9.17;;;;;;;;;;523378;28;1446;-59
2022/11/27 00:26:39;;;;;;;17.52;9.30;;;;;;;;;;523738;28;1827;-59
2022/11/27 00:26:55;;;;;;;18.63;9.65;;;;;;;;;;522644;28;1338;-59
2022/11/27 00:27:10;;;;;;;16.87;9.40;;;;;;;;;;522597;28;1137;-59
2022/11/27 00:27:25;;;;;;;15.68;8.77;;;;;;;;;;523143;28;1224;-59
2022/11/27 00:27:41;;;;;;;16.93;9.00;;;;;;;;;;521496;28;1562;-59
2022/11/27 00:27:56;;;;;;;16.73;9.13;;;;;;;;;;522634;28;1355;-59
2022/11/27 00:28:11;;;;;;;15.87;9.27;;;;;;;;;;519229;28;1268;-59
2022/11/27 00:28:27;;;;;;;17.48;9.55;;;;;;;;;;521203;28;1469;-59
2022/11/27 00:28:42;;;;;;;17.93;9.33;;;;;;;;;;520691;28;1304;-59
2022/11/27 00:28:58;;;;;;;17.63;9.50;;;;;;;;;;521525;28;1497;-59
2022/11/27 00:29:13;;;;;;;17.48;9.70;;;;;;;;;;522636;28;1237;-59
2022/11/27 00:29:29;;;;;;;20.17;10.03;;;;;;;;;;519579;28;1215;-59
2022/11/27 00:29:44;;;;;;;22.77;10.27;;;;;;;;;;522762;28;1212;-59
2022/11/27 00:30:00;;;;;;;19.60;9.83;;;;;;;;;;521785;28;2016;-59
2022/11/27 00:30:15;;;;;;;17.97;9.70;;;;;;;;;;524499;28;1528;-59
2022/11/27 00:30:30;;;;;;;17.15;9.48;;;;;;;;;;524990;28;1137;-58
2022/11/27 00:30:46;;;;;;;15.80;9.70;;;;;;;;;;520623;28;1162;-59
2022/11/27 00:31:07;;;;;;;15.98;9.98;;;;;;;;;;522441;28;1382;-59
2022/11/27 00:31:27;;;;;;;17.25;9.63;;;;;;;;;;522839;28;1406;-59
2022/11/27 00:31:42;;;;;;;18.25;9.60;;;;;;;;;;523340;28;1330;-59
2022/11/27 00:31:57;;;;;;;17.85;9.60;;;;;;;;;;523662;28;1413;-59
2022/11/27 00:32:13;;;;;;;16.40;9.40;;;;;;;;;;523401;28;1199;-59
2022/11/27 00:32:28;;;;;;;16.27;9.13;;;;;;;;;;523284;28;1096;-59
2022/11/27 00:32:43;;;;;;;15.70;8.85;;;;;;;;;;524023;28;1421;-59
2022/11/27 00:32:59;;;;;;;16.40;9.10;;;;;;;;;;523075;28;1386;-59
2022/11/27 00:33:14;;;;;;;17.97;9.40;;;;;;;;;;520851;28;3307;-59
2022/11/27 00:33:30;;;;;;;17.15;9.65;;;;;;;;;;522662;28;1216;-59
2022/11/27 00:33:45;;;;;;;17.70;10.00;;;;;;;;;;523250;28;1965;-59
2022/11/27 00:34:04;;;;;;;20.45;9.77;;;;;;;;;;524106;28;1175;-59
2022/11/27 00:34:19;;;;;;;17.27;9.30;;;;;;;;;;520640;28;1191;-59
2022/11/27 00:34:35;;;;;;;16.77;9.33;;;;;;;;;;519886;28;1145;-59
2022/11/27 00:34:50;;;;;;;18.55;10.15;;;;;;;;;;520999;28;1515;-59
2022/11/27 00:35:06;;;;;;;18.27;9.87;;;;;;;;;;521696;28;1042;-59
2022/11/27 00:35:21;;;;;;;16.85;9.40;;;;;;;;;;524232;28;1330;-59
2022/11/27 00:35:39;;;;;;;16.93;9.40;;;;;;;;;;521491;28;1316;-59
2022/11/27 00:35:55;;;;;;;16.88;9.30;;;;;;;;;;522014;28;1104;-58
2022/11/27 00:36:12;;;;;;;17.55;9.65;;;;;;;;;;521284;28;1234;-59
2022/11/27 00:36:29;;;;;;;18.33;9.55;;;;;;;;;;524071;28;1641;-59
2022/11/27 00:36:44;;;;;;;19.00;10.00;;;;;;;;;;524254;28;1311;-59
2022/11/27 00:37:00;;;;;;;18.23;10.07;;;;;;;;;;522620;28;1194;-59
2022/11/27 00:37:15;;;;;;;17.27;9.50;;;;;;;;;;521629;28;1220;-58
2022/11/27 00:37:30;;;;;;;18.70;9.80;;;;;;;;;;519895;28;1353;-59
2022/11/27 00:37:45;;;;;;;20.13;10.30;;;;;;;;;;520711;28;1379;-59
2022/11/27 00:38:01;;;;;;;18.00;9.90;;;;;;;;;;521224;28;2039;-58
2022/11/27 00:38:16;;;;;;;17.45;9.82;;;;;;;;;;522319;28;1406;-59
2022/11/27 00:38:32;;;;;;;18.67;10.30;;;;;;;;;;523035;28;1366;-59
2022/11/27 00:38:48;;;;;;;19.02;10.07;;;;;;;;;;523296;28;1197;-59
2022/11/27 00:39:04;;;;;;;19.83;10.10;;;;;;;;;;525249;28;1353;-59
2022/11/27 00:39:19;;;;;;;19.05;10.15;;;;;;;;;;525360;28;1401;-58
2022/11/27 00:39:34;;;;;;;18.73;10.10;;;;;;;;;;527103;27;1693;-59
2022/11/27 00:39:50;;;;;;;19.40;10.40;;;;;;;;;;525782;27;1207;-59
2022/11/27 00:40:05;;;;;;;19.00;10.20;;;;;;;;;;525841;27;1268;-59
2022/11/27 00:40:21;;;;;;;17.17;9.98;;;;;;;;;;526364;27;1481;-59
2022/11/27 00:40:36;;;;;;;16.30;10.10;;;;;;;;;;529108;27;1442;-59
2022/11/27 00:40:51;;;;;;;17.60;10.27;;;;;;;;;;528671;27;1542;-58
2022/11/27 00:41:24;;;;;;;18.37;10.27;;;;;;;;;;526501;27;1595;-59
2022/11/27 00:41:39;;;;;;;18.38;10.07;;;;;;;;;;524506;28;1418;-59
2022/11/27 00:41:55;;;;;;;19.02;10.43;;;;;;;;;;523961;28;1065;-59
2022/11/27 00:42:10;;;;;;;18.13;10.43;;;;;;;;;;522700;28;1336;-59
2022/11/27 00:42:25;;;;;;;17.40;10.37;;;;;;;;;;519600;28;1183;-58
2022/11/27 00:42:41;;;;;;;17.23;10.10;;;;;;;;;;520022;28;1645;-59
2022/11/27 00:42:56;;;;;;;17.97;10.27;;;;;;;;;;521998;28;1395;-59
2022/11/27 00:43:11;;;;;;;18.27;10.50;;;;;;;;;;521861;28;1224;-59
2022/11/27 00:43:27;;;;;;;17.63;10.68;;;;;;;;;;523601;28;1481;-59
2022/11/27 00:43:42;;;;;;;18.40;10.87;;;;;;;;;;521666;28;2296;-58
2022/11/27 00:43:58;;;;;;;20.55;10.88;;;;;;;;;;520599;28;1796;-59
2022/11/27 00:44:13;;;;;;;20.30;10.67;;;;;;;;;;523171;28;1260;-59
2022/11/27 00:44:28;;;;;;;18.33;10.67;;;;;;;;;;518860;28;1418;-59
2022/11/27 00:44:44;;;;;;;17.33;10.35;;;;;;;;;;520385;28;1364;-59
2022/11/27 00:44:59;;;;;;;18.83;10.30;;;;;;;;;;520391;28;1451;-59
2022/11/27 00:45:14;;;;;;;19.53;10.73;;;;;;;;;;517628;28;1467;-59
2022/11/27 00:45:29;;;;;;;17.77;10.70;;;;;;;;;;518726;28;1552;-59
2022/11/27 00:45:49;;;;;;;17.10;10.50;;;;;;;;;;520811;28;1105;-59
2022/11/27 00:46:04;;;;;;;17.70;10.75;;;;;;;;;;522704;28;2059;-59
2022/11/27 00:46:23;;;;;;;18.95;10.68;;;;;;;;;;522199;27;1266;-59
2022/11/27 00:46:40;;;;;;;21.45;10.57;;;;;;;;;;526588;27;1357;-59
2022/11/27 00:46:55;;;;;;;21.60;10.57;;;;;;;;;;527402;27;1299;-59
2022/11/27 00:47:10;;;;;;;20.65;10.43;;;;;;;;;;527271;27;1448;-59
2022/11/27 00:47:26;;;;;;;17.53;9.80;;;;;;;;;;525622;27;1389;-58
2022/11/27 00:47:41;;;;;;;18.57;10.27;;;;;;;;;;526579;27;2268;-59
2022/11/27 00:47:56;;;;;;;19.73;10.40;;;;;;;;;;527268;27;1582;-59
2022/11/27 00:48:12;;;;;;;21.00;10.57;;;;;;;;;;524813;28;1285;-59
2022/11/27 00:48:27;;;;;;;20.90;10.63;;;;;;;;;;524181;28;1082;-58
2022/11/27 00:48:43;;;;;;;18.40;10.43;;;;;;;;;;525071;28;1095;-59
2022/11/27 00:49:00;;;;;;;19.13;10.73;;;;;;;;;;524294;28;1414;-59
2022/11/27 00:49:16;;;;;;;17.60;10.10;;;;;;;;;;525379;27;2093;-59
2022/11/27 00:49:31;;;;;;;18.23;9.50;;;;;;;;;;524762;27;1290;-59
2022/11/27 00:49:46;;;;;;;18.33;9.57;;;;;;;;;;526133;27;1182;-59
2022/11/27 00:50:03;;;;;;;17.53;9.83;;;;;;;;;;527037;27;1463;-58
2022/11/27 00:50:18;;;;;;;18.02;10.20;;;;;;;;;;526890;27;1486;-58
2022/11/27 00:50:33;;;;;;;20.55;11.25;;;;;;;;;;524071;28;1662;-59
2022/11/27 00:50:49;;;;;;;22.03;11.23;;;;;;;;;;525000;28;1688;-58
2022/11/27 00:51:06;;;;;;;20.73;10.27;;;;;;;;;;522314;28;1478;-59
2022/11/27 00:51:23;;;;;;;20.75;10.38;;;;;;;;;;520342;28;1374;-59
2022/11/27 00:51:39;;;;;;;19.70;10.70;;;;;;;;;;519285;28;1221;-59
2022/11/27 00:51:54;;;;;;;19.67;11.07;;;;;;;;;;520643;28;1383;-59
2022/11/27 00:52:09;;;;;;;20.95;11.52;;;;;;;;;;519457;28;1455;-61
2022/11/27 00:52:25;;;;;;;24.23;12.63;;;;;;;;;;518868;28;1578;-61
2022/11/27 00:52:40;;;;;;;23.75;12.45;;;;;;;;;;519629;28;1531;-59
2022/11/27 00:52:59;;;;;;;20.67;11.57;;;;;;;;;;522434;28;1545;-59
2022/11/27 00:53:14;;;;;;;21.00;11.95;;;;;;;;;;521627;28;1535;-59
2022/11/27 00:53:31;;;;;;;24.83;12.38;;;;;;;;;;524648;28;1426;-58
2022/11/27 00:53:46;;;;;;;24.77;12.32;;;;;;;;;;524711;28;1981;-58
2022/11/27 00:54:02;;;;;;;24.08;12.45;;;;;;;;;;525845;27;2045;-58
2022/11/27 00:54:17;;;;;;;28.75;12.82;;;;;;;;;;524146;28;1238;-58
2022/11/27 00:54:32;;;;;;;27.03;12.30;;;;;;;;;;524865;28;1127;-59
2022/11/27 00:54:48;;;;;;;23.23;12.10;;;;;;;;;;523396;28;1471;-58
2022/11/27 00:55:04;;;;;;;24.77;12.73;;;;;;;;;;524986;28;1323;-59
2022/11/27 00:55:19;;;;;;;24.77;13.02;;;;;;;;;;522925;28;1395;-59
2022/11/27 00:55:34;;;;;;;24.70;12.33;;;;;;;;;;522280;28;1701;-59
2022/11/27 00:55:49;;;;;;;25.87;11.73;;;;;;;;;;519497;28;1190;-59
2022/11/27 00:56:05;;;;;;;24.17;11.27;;;;;;;;;;520675;28;1422;-59
2022/11/27 00:56:26;;;;;;;21.02;11.07;;;;;;;;;;523109;28;1434;-58
2022/11/27 00:56:42;;;;;;;21.27;10.90;;;;;;;;;;522812;28;1281;-59
2022/11/27 00:56:57;;;;;;;22.20;11.00;;;;;;;;;;524604;28;1419;-59
2022/11/27 00:57:12;;;;;;;23.17;11.43;;;;;;;;;;525056;27;2129;-59
2022/11/27 00:57:27;;;;;;;22.50;11.57;;;;;;;;;;527161;27;1142;-59
2022/11/27 00:57:43;;;;;;;20.47;11.27;;;;;;;;;;525989;27;1113;-59
2022/11/27 00:57:58;;;;;;;19.80;10.77;;;;;;;;;;526839;27;1237;-59
2022/11/27 00:58:13;;;;;;;18.57;9.97;;;;;;;;;;526364;27;1523;-59
2022/11/27 00:58:29;;;;;;;19.90;9.80;;;;;;;;;;526987;27;1302;-59
2022/11/27 00:58:45;;;;;;;19.52;9.85;;;;;;;;;;524636;28;1718;-59
2022/11/27 00:59:01;;;;;;;19.15;10.18;;;;;;;;;;523084;28;1440;-59
2022/11/27 00:59:16;;;;;;;23.00;11.23;;;;;;;;;;521943;28;1453;-59
2022/11/27 00:59:31;;;;;;;23.37;11.30;;;;;;;;;;522386;28;1498;-59
2022/11/27 00:59:47;;;;;;;24.58;12.35;;;;;;;;;;522000;28;1378;-59
2022/11/27 01:00:05;;;;;;;26.67;13.23;;;;;;;;;;519346;28;1188;-59
2022/11/27 01:00:22;;;;;;;28.60;13.63;;;;;;;;;;520482;28;1796;-59
2022/11/27 01:00:37;;;;;;;29.75;14.23;;;;;;;;;;520069;28;1411;-59
2022/11/27 01:01:06;;;;;;;29.83;13.67;;;;;;;;;;520465;28;1062;-59
2022/11/27 01:01:26;;;;;;;30.27;13.60;;;;;;;;;;521956;28;1272;-59
2022/11/27 01:01:42;;;;;;;29.35;13.98;;;;;;;;;;521710;28;1177;-59
2022/11/27 01:01:57;;;;;;;28.35;13.95;;;;;;;;;;520517;28;3053;-59
2022/11/27 01:02:12;;;;;;;27.00;13.60;;;;;;;;;;525074;27;1394;-59
2022/11/27 01:02:28;;;;;;;29.15;13.40;;;;;;;;;;525212;28;1485;-59
2022/11/27 01:02:43;;;;;;;28.67;13.60;;;;;;;;;;521133;28;1214;-59
2022/11/27 01:02:59;;;;;;;29.13;14.02;;;;;;;;;;521249;28;1210;-59
2022/11/27 01:03:14;;;;;;;28.20;13.97;;;;;;;;;;522893;28;1399;-59
2022/11/27 01:03:30;;;;;;;25.87;13.70;;;;;;;;;;522755;28;1856;-59
2022/11/27 01:03:46;;;;;;;24.77;13.43;;;;;;;;;;523517;28;1435;-59
2022/11/27 01:04:03;;;;;;;26.50;13.03;;;;;;;;;;524496;28;1132;-59
2022/11/27 01:04:19;;;;;;;26.98;12.82;;;;;;;;;;524371;28;1403;-59
2022/11/27 01:04:34;;;;;;;26.23;12.87;;;;;;;;;;522864;28;1576;-59
2022/11/27 01:04:49;;;;;;;28.83;13.27;;;;;;;;;;521353;28;1347;-59
2022/11/27 01:05:05;;;;;;;28.15;13.43;;;;;;;;;;521624;28;1760;-59
2022/11/27 01:05:20;;;;;;;28.30;14.20;;;;;;;;;;525273;27;1335;-58
2022/11/27 01:05:36;;;;;;;31.70;15.57;;;;;;;;;;525017;28;1497;-59
2022/11/27 01:05:51;;;;;;;33.40;16.03;;;;;;;;;;525439;28;1315;-59
2022/11/27 01:06:07;;;;;;;33.72;15.88;;;;;;;;;;525475;28;1481;-59
2022/11/27 01:06:23;;;;;;;33.53;15.53;;;;;;;;;;523030;28;1160;-59
2022/11/27 01:06:39;;;;;;;33.53;15.48;;;;;;;;;;525370;27;1589;-59
2022/11/27 01:06:54;;;;;;;32.50;15.18;;;;;;;;;;524146;28;1613;-59
2022/11/27 01:07:09;;;;;;;33.38;15.38;;;;;;;;;;524974;28;1101;-59
2022/11/27 01:07:25;;;;;;;32.03;15.10;;;;;;;;;;521692;28;1228;-59
2022/11/27 01:07:41;;;;;;;27.70;14.20;;;;;;;;;;520887;28;1101;-59
2022/11/27 01:07:56;;;;;;;28.17;14.30;;;;;;;;;;522602;28;1384;-59
2022/11/27 01:08:11;;;;;;;27.77;13.80;;;;;;;;;;524777;28;1414;-59
2022/11/27 01:08:26;;;;;;;23.23;12.30;;;;;;;;;;522255;28;2103;-59
2022/11/27 01:08:42;;;;;;;22.07;11.90;;;;;;;;;;519263;28;1319;-59
2022/11/27 01:08:58;;;;;;;21.57;11.63;;;;;;;;;;520513;28;1192;-59
2022/11/27 01:09:14;;;;;;;21.23;11.40;;;;;;;;;;522683;28;1450;-59
2022/11/27 01:09:29;;;;;;;20.35;10.95;;;;;;;;;;524416;28;1438;-59
2022/11/27 01:09:44;;;;;;;20.57;10.73;;;;;;;;;;523732;28;1677;-59
2022/11/27 01:10:00;;;;;;;21.47;11.63;;;;;;;;;;524185;28;1497;-59
2022/11/27 01:10:15;;;;;;;22.73;11.98;;;;;;;;;;523507;28;1583;-59
2022/11/27 01:10:31;;;;;;;23.17;11.57;;;;;;;;;;523414;28;1411;-58
2022/11/27 01:10:50;;;;;;;20.33;10.80;;;;;;;;;;524112;28;1465;-59
2022/11/27 01:11:05;;;;;;;25.50;12.95;;;;;;;;;;524475;28;1216;-59
2022/11/27 01:11:24;;;;;;;33.00;15.55;;;;;;;;;;524206;28;1166;-59
2022/11/27 01:11:40;;;;;;;24.75;12.43;;;;;;;;;;525175;27;2847;-59
2022/11/27 01:11:56;;;;;;;22.40;11.60;;;;;;;;;;526933;27;1413;-58
2022/11/27 01:12:11;;;;;;;22.90;11.40;;;;;;;;;;523209;28;1308;-59
2022/11/27 01:12:26;;;;;;;22.70;10.98;;;;;;;;;;523384;28;1356;-59
2022/11/27 01:12:41;;;;;;;20.53;11.03;;;;;;;;;;519166;28;1465;-59
2022/11/27 01:12:57;;;;;;;19.40;11.00;;;;;;;;;;518506;28;1471;-59
2022/11/27 01:13:12;;;;;;;19.08;10.52;;;;;;;;;;519129;28;1676;-59
2022/11/27 01:13:30;;;;;;;17.33;9.77;;;;;;;;;;520093;28;2442;-59
2022/11/27 01:13:46;;;;;;;19.58;10.27;;;;;;;;;;518665;28;1954;-59
2022/11/27 01:14:09;;;;;;;21.30;11.20;;;;;;;;;;520996;28;1507;-59
2022/11/27 01:14:24;;;;;;;21.17;10.90;;;;;;;;;;519539;28;1685;-59
2022/11/27 01:14:39;;;;;;;22.53;11.13;;;;;;;;;;523811;28;1383;-59
2022/11/27 01:14:55;;;;;;;23.63;11.70;;;;;;;;;;520683;28;1926;-59
2022/11/27 01:15:10;;;;;;;23.10;11.97;;;;;;;;;;519880;28;1436;-59
2022/11/27 01:15:25;;;;;;;22.98;11.82;;;;;;;;;;520694;28;1296;-59
2022/11/27 01:15:40;;;;;;;23.40;11.70;;;;;;;;;;521280;28;1174;-59
2022/11/27 01:16:02;;;;;;;22.80;11.70;;;;;;;;;;523210;28;1368;-59
2022/11/27 01:16:21;;;;;;;20.08;10.43;;;;;;;;;;521248;28;1614;-59
2022/11/27 01:16:37;;;;;;;19.10;10.07;;;;;;;;;;524884;28;1498;-59
2022/11/27 01:16:52;;;;;;;19.23;10.23;;;;;;;;;;527894;27;1488;-58
2022/11/27 01:17:07;;;;;;;20.00;9.80;;;;;;;;;;525194;27;2320;-59
2022/11/27 01:17:22;;;;;;;19.67;10.17;;;;;;;;;;526471;27;1277;-59
2022/11/27 01:17:38;;;;;;;18.63;10.43;;;;;;;;;;526633;27;1352;-59
2022/11/27 01:17:53;;;;;;;18.73;10.30;;;;;;;;;;525132;27;1764;-59
2022/11/27 01:18:09;;;;;;;18.27;10.10;;;;;;;;;;525880;27;1084;-59
2022/11/27 01:18:24;;;;;;;18.27;10.05;;;;;;;;;;522079;28;1243;-59
2022/11/27 01:18:41;;;;;;;17.83;10.03;;;;;;;;;;522412;28;1477;-59
2022/11/27 01:18:59;;;;;;;16.98;9.95;;;;;;;;;;523953;28;1447;-59
2022/11/27 01:19:14;;;;;;;17.20;9.70;;;;;;;;;;524440;28;1112;-59
2022/11/27 01:19:30;;;;;;;16.97;9.43;;;;;;;;;;524607;28;1705;-59
2022/11/27 01:19:45;;;;;;;17.30;9.68;;;;;;;;;;525167;28;1351;-59
2022/11/27 01:20:00;;;;;;;16.50;9.93;;;;;;;;;;527033;27;1386;-60
2022/11/27 01:20:16;;;;;;;16.80;9.47;;;;;;;;;;524281;28;1182;-60
2022/11/27 01:20:31;;;;;;;17.77;9.40;;;;;;;;;;523795;28;1113;-60
2022/11/27 01:20:51;;;;;;;20.33;10.70;;;;;;;;;;524337;28;1253;-60
2022/11/27 01:21:07;;;;;;;29.85;13.55;;;;;;;;;;524387;28;1828;-60
2022/11/27 01:21:23;;;;;;;49.22;18.75;;;;;;;;;;523939;28;1346;-60
2022/11/27 01:21:38;;;;;;;64.25;23.17;;;;;;;;;;525395;27;1365;-60
2022/11/27 01:21:53;;;;;;;63.87;23.67;;;;;;;;;;523866;27;1361;-60
2022/11/27 01:22:09;;;;;;;56.25;21.73;;;;;;;;;;524708;27;1363;-60
2022/11/27 01:22:24;;;;;;;47.23;19.07;;;;;;;;;;522498;28;1433;-60
2022/11/27 01:22:39;;;;;;;44.87;18.43;;;;;;;;;;524244;28;1418;-60
2022/11/27 01:22:54;;;;;;;49.40;19.48;;;;;;;;;;524204;27;2035;-60
2022/11/27 01:23:10;;;;;;;51.50;19.73;;;;;;;;;;523891;28;1430;-60
2022/11/27 01:23:25;;;;;;;44.27;17.83;;;;;;;;;;522619;28;1165;-59
2022/11/27 01:23:41;;;;;;;34.58;15.52;;;;;;;;;;525193;27;1592;-60
2022/11/27 01:23:56;;;;;;;33.93;14.87;;;;;;;;;;526801;27;1370;-60
2022/11/27 01:24:13;;;;;;;32.90;14.55;;;;;;;;;;525161;28;1346;-60
2022/11/27 01:24:29;;;;;;;25.48;12.60;;;;;;;;;;523021;28;1385;-60
2022/11/27 01:24:45;;;;;;;25.53;12.67;;;;;;;;;;523441;28;2355;-60
2022/11/27 01:25:00;;;;;;;25.90;12.48;;;;;;;;;;521473;28;1399;-60
2022/11/27 01:25:15;;;;;;;20.00;10.63;;;;;;;;;;522152;28;1451;-60
2022/11/27 01:25:30;;;;;;;18.42;10.60;;;;;;;;;;524074;28;1318;-60
2022/11/27 01:25:47;;;;;;;19.80;10.53;;;;;;;;;;518454;28;1197;-60
2022/11/27 01:26:04;;;;;;;18.65;10.35;;;;;;;;;;522561;28;1961;-59
2022/11/27 01:26:20;;;;;;;17.52;10.30;;;;;;;;;;524019;28;1363;-60
2022/11/27 01:26:35;;;;;;;16.13;9.88;;;;;;;;;;520065;28;1534;-60
2022/11/27 01:26:50;;;;;;;16.10;9.70;;;;;;;;;;519008;28;1560;-60
2022/11/27 01:27:06;;;;;;;16.90;9.63;;;;;;;;;;520484;28;1374;-60
2022/11/27 01:27:21;;;;;;;17.83;9.57;;;;;;;;;;520857;28;1415;-60
2022/11/27 01:27:36;;;;;;;16.13;9.23;;;;;;;;;;519185;28;1545;-60
2022/11/27 01:27:52;;;;;;;15.18;9.40;;;;;;;;;;520032;28;1261;-60
2022/11/27 01:28:07;;;;;;;17.27;9.30;;;;;;;;;;520593;28;1248;-60
2022/11/27 01:28:23;;;;;;;17.57;9.47;;;;;;;;;;521299;28;1443;-60
2022/11/27 01:28:39;;;;;;;15.93;9.57;;;;;;;;;;522996;28;1494;-60
2022/11/27 01:28:56;;;;;;;15.52;9.07;;;;;;;;;;521410;28;1112;-60
2022/11/27 01:29:11;;;;;;;15.80;9.05;;;;;;;;;;524775;28;1935;-60
2022/11/27 01:29:26;;;;;;;16.40;9.25;;;;;;;;;;522556;28;1341;-60
2022/11/27 01:29:42;;;;;;;15.80;9.40;;;;;;;;;;523490;28;1442;-60
2022/11/27 01:29:57;;;;;;;15.00;9.50;;;;;;;;;;523732;28;1132;-60
2022/11/27 01:30:13;;;;;;;16.15;9.70;;;;;;;;;;524952;28;1335;-60
2022/11/27 01:30:28;;;;;;;15.73;9.60;;;;;;;;;;525056;28;1157;-60
2022/11/27 01:30:43;;;;;;;16.40;9.32;;;;;;;;;;521540;28;1753;-60
2022/11/27 01:31:04;;;;;;;15.80;9.27;;;;;;;;;;524251;28;1468;-60
2022/11/27 01:31:22;;;;;;;15.75;9.10;;;;;;;;;;522084;28;1490;-60
2022/11/27 01:31:38;;;;;;;15.65;9.07;;;;;;;;;;522822;28;1196;-60
2022/11/27 01:31:53;;;;;;;16.07;9.47;;;;;;;;;;522623;28;1117;-60
2022/11/27 01:32:08;;;;;;;17.27;9.60;;;;;;;;;;520923;28;1360;-60
2022/11/27 01:32:23;;;;;;;18.57;9.63;;;;;;;;;;520411;28;1581;-60
2022/11/27 01:32:39;;;;;;;19.10;9.93;;;;;;;;;;518267;28;1252;-60
2022/11/27 01:32:54;;;;;;;18.97;10.07;;;;;;;;;;517755;28;1365;-60
2022/11/27 01:33:10;;;;;;;17.00;10.03;;;;;;;;;;517884;28;1476;-60
2022/11/27 01:33:25;;;;;;;16.08;10.43;;;;;;;;;;521328;28;1467;-60
2022/11/27 01:33:41;;;;;;;17.43;10.40;;;;;;;;;;520528;28;1295;-60
2022/11/27 01:34:00;;;;;;;17.73;10.23;;;;;;;;;;520376;28;1926;-60
2022/11/27 01:34:17;;;;;;;16.83;10.00;;;;;;;;;;522777;28;1430;-60
2022/11/27 01:34:32;;;;;;;17.92;10.13;;;;;;;;;;523621;28;1620;-60
2022/11/27 01:34:47;;;;;;;17.50;9.90;;;;;;;;;;524900;27;1155;-60
2022/11/27 01:35:03;;;;;;;15.93;9.53;;;;;;;;;;525808;27;1208;-60
2022/11/27 01:35:18;;;;;;;16.52;9.82;;;;;;;;;;526450;27;1564;-60
2022/11/27 01:35:34;;;;;;;15.70;9.90;;;;;;;;;;525166;27;1672;-60
2022/11/27 01:36:01;;;;;;;16.63;9.90;;;;;;;;;;526752;27;1132;-60
2022/11/27 01:36:16;;;;;;;18.55;10.45;;;;;;;;;;526816;27;1504;-60
2022/11/27 01:36:33;;;;;;;18.27;10.27;;;;;;;;;;525971;27;1650;-60
2022/11/27 01:36:48;;;;;;;16.63;9.85;;;;;;;;;;527192;27;1415;-60